Time;durP1;ratioP1;P1;durP2;ratioP2;P2;SDS_P1;SDS_P2;PMS_P1;PMS_P2;Temp;Humidity;BMP_temperature;BMP_pressure;BME280_temperature;BME280_humidity;BME280_pressure;Samples;Min_cycle;Max_cycle;Signal;HPM_P1;HPM_P2
2022/07/01 00:00:59;;;;;;;14.57;11.13;;;24.20;99.90;;;;;;4220216;28;20208;-76
2022/07/01 00:03:01;;;;;;;12.50;10.30;;;24.20;99.90;;;;;;4220545;28;20267;-77
2022/07/01 00:05:04;;;;;;;13.00;10.50;;;24.20;99.90;;;;;;4216759;28;20311;-76
2022/07/01 00:07:05;;;;;;;13.70;10.37;;;24.10;99.90;;;;;;4218703;28;20220;-77
2022/07/01 00:09:08;;;;;;;14.93;11.30;;;24.10;99.90;;;;;;4216631;28;20231;-77
2022/07/01 00:11:10;;;;;;;15.37;11.00;;;24.10;99.90;;;;;;4218236;28;20249;-76
2022/07/01 00:13:12;;;;;;;14.37;10.97;;;24.00;99.90;;;;;;4221811;28;20316;-76
2022/07/01 00:15:14;;;;;;;15.67;11.03;;;24.00;99.90;;;;;;4222322;28;20299;-78
2022/07/01 00:17:17;;;;;;;14.47;10.77;;;24.00;99.90;;;;;;4220963;28;20255;-76
2022/07/01 00:19:19;;;;;;;13.60;10.63;;;24.00;99.90;;;;;;4218944;28;20207;-76
2022/07/01 00:21:21;;;;;;;14.73;10.70;;;24.00;99.90;;;;;;4228170;28;20209;-76
2022/07/01 00:23:23;;;;;;;13.47;10.90;;;23.90;99.90;;;;;;4227626;28;20791;-76
2022/07/01 00:25:25;;;;;;;14.53;10.93;;;23.90;99.90;;;;;;4220294;28;20316;-76
2022/07/01 00:27:27;;;;;;;12.63;10.47;;;23.90;99.90;;;;;;4221859;28;20564;-76
2022/07/01 00:29:28;;;;;;;14.60;10.50;;;23.90;99.90;;;;;;4219976;28;20211;-76
2022/07/01 00:31:30;;;;;;;14.13;11.53;;;23.80;99.90;;;;;;4218880;28;20211;-77
2022/07/01 00:33:34;;;;;;;13.23;10.50;;;23.80;99.90;;;;;;4219579;28;20734;-76
2022/07/01 00:35:35;;;;;;;15.37;10.33;;;23.80;99.90;;;;;;4217650;28;20296;-76
2022/07/01 00:37:40;;;;;;;14.70;10.77;;;23.80;99.90;;;;;;4219554;28;20209;-76
2022/07/01 00:39:42;;;;;;;13.60;10.50;;;23.70;99.90;;;;;;4218660;28;20205;-76
2022/07/01 00:41:43;;;;;;;12.73;9.87;;;23.70;99.90;;;;;;4220859;28;20303;-76
2022/07/01 00:43:45;;;;;;;13.93;10.70;;;23.70;99.90;;;;;;4216258;28;20727;-76
2022/07/01 00:45:49;;;;;;;15.87;10.77;;;23.70;99.90;;;;;;4218773;28;20260;-76
2022/07/01 00:47:52;;;;;;;13.23;10.03;;;23.70;99.90;;;;;;4214565;28;20216;-76
2022/07/01 00:49:55;;;;;;;11.90;9.73;;;23.60;99.90;;;;;;4217064;28;20296;-76
2022/07/01 00:51:57;;;;;;;14.20;10.20;;;23.60;99.90;;;;;;4220838;28;20213;-76
2022/07/01 00:54:00;;;;;;;12.73;10.77;;;23.60;99.90;;;;;;4217747;28;20208;-77
2022/07/01 00:56:02;;;;;;;11.90;9.37;;;23.60;99.90;;;;;;4220605;28;20216;-76
2022/07/01 00:58:04;;;;;;;12.00;9.57;;;23.50;99.90;;;;;;4218848;28;20214;-76
2022/07/01 01:00:09;;;;;;;13.50;10.50;;;23.50;99.90;;;;;;4217177;28;20216;-76
2022/07/01 01:02:11;;;;;;;11.30;9.30;;;23.50;99.90;;;;;;4216147;28;20211;-77
2022/07/01 01:04:13;;;;;;;12.73;10.37;;;23.50;99.90;;;;;;4217236;28;20295;-76
2022/07/01 01:06:17;;;;;;;10.87;9.00;;;23.50;99.90;;;;;;4217996;28;20298;-76
2022/07/01 01:08:19;;;;;;;14.43;10.03;;;23.40;99.90;;;;;;4218992;28;20262;-76
2022/07/01 01:10:23;;;;;;;12.23;9.80;;;23.40;99.90;;;;;;4215606;28;20224;-76
2022/07/01 01:12:26;;;;;;;11.10;9.37;;;23.40;99.90;;;;;;4218318;28;20229;-76
2022/07/01 01:14:28;;;;;;;11.97;9.30;;;23.40;99.90;;;;;;4214544;28;20305;-77
2022/07/01 01:16:30;;;;;;;11.93;9.73;;;23.40;99.90;;;;;;4218125;28;20207;-77
2022/07/01 01:18:33;;;;;;;14.30;10.43;;;23.30;99.90;;;;;;4218492;28;20478;-76
2022/07/01 01:20:37;;;;;;;14.00;10.17;;;23.30;99.90;;;;;;4216615;28;20207;-76
2022/07/01 01:22:42;;;;;;;13.67;10.40;;;23.30;99.90;;;;;;4217863;28;20310;-78
2022/07/01 01:24:45;;;;;;;14.30;9.97;;;23.20;99.90;;;;;;4220503;28;20235;-76
2022/07/01 01:26:47;;;;;;;13.40;10.20;;;23.20;99.90;;;;;;4216950;28;20634;-78
2022/07/01 01:28:49;;;;;;;12.67;10.03;;;23.20;99.90;;;;;;4216144;28;20224;-76
2022/07/01 01:30:52;;;;;;;15.40;10.10;;;23.20;99.90;;;;;;4216381;28;20205;-76
2022/07/01 01:32:54;;;;;;;12.03;10.10;;;23.20;99.90;;;;;;4220526;28;20285;-76
2022/07/01 01:34:56;;;;;;;14.10;10.07;;;23.20;99.90;;;;;;4214507;28;20204;-76
2022/07/01 01:36:59;;;;;;;11.87;9.50;;;23.10;99.90;;;;;;4216790;28;20299;-76
2022/07/01 01:39:04;;;;;;;13.40;10.83;;;23.10;99.90;;;;;;4216620;28;20659;-76
2022/07/01 01:41:09;;;;;;;13.03;9.90;;;23.10;99.90;;;;;;4215325;28;20264;-77
2022/07/01 01:43:11;;;;;;;11.27;9.77;;;23.00;99.90;;;;;;4220569;28;20231;-77
2022/07/01 01:45:13;;;;;;;13.17;9.43;;;23.00;99.90;;;;;;4217691;28;20498;-76
2022/07/01 01:47:15;;;;;;;10.87;9.33;;;23.00;99.90;;;;;;4218358;28;20220;-77
2022/07/01 01:49:18;;;;;;;12.87;9.77;;;23.00;99.90;;;;;;4216998;28;20227;-77
2022/07/01 01:51:22;;;;;;;10.70;9.17;;;23.00;99.90;;;;;;4217123;28;20196;-76
2022/07/01 01:53:25;;;;;;;12.67;9.50;;;23.00;99.90;;;;;;4214455;28;20350;-76
2022/07/01 01:55:29;;;;;;;13.77;9.40;;;23.00;99.90;;;;;;4217417;28;20298;-76
2022/07/01 01:57:31;;;;;;;14.13;9.93;;;23.00;99.90;;;;;;4217203;28;20310;-77
2022/07/01 01:59:33;;;;;;;11.47;8.57;;;23.00;99.90;;;;;;4216033;28;20211;-76
2022/07/01 02:01:35;;;;;;;10.63;8.53;;;23.00;99.90;;;;;;4219885;28;20209;-76
2022/07/01 02:03:37;;;;;;;11.80;8.77;;;23.00;99.90;;;;;;4218062;28;20259;-76
2022/07/01 02:05:39;;;;;;;11.60;9.23;;;23.00;99.90;;;;;;4216765;28;20282;-76
2022/07/01 02:07:41;;;;;;;11.57;8.57;;;23.00;99.90;;;;;;4215142;28;20300;-76
2022/07/01 02:09:44;;;;;;;11.27;8.70;;;23.00;99.90;;;;;;4216847;28;20208;-76
2022/07/01 02:11:46;;;;;;;10.03;8.30;;;23.00;99.90;;;;;;4219237;28;20222;-77
2022/07/01 02:13:48;;;;;;;11.40;8.53;;;23.00;99.90;;;;;;4219508;28;20724;-76
2022/07/01 02:15:50;;;;;;;11.07;8.47;;;23.00;99.90;;;;;;4217408;28;20203;-76
2022/07/01 02:17:53;;;;;;;9.23;8.10;;;23.00;99.90;;;;;;4216251;28;20222;-76
2022/07/01 02:19:55;;;;;;;10.27;7.80;;;23.00;99.90;;;;;;4213878;28;20218;-76
2022/07/01 02:21:57;;;;;;;12.00;8.73;;;23.00;99.90;;;;;;4217094;28;20311;-76
2022/07/01 02:23:59;;;;;;;11.97;8.57;;;23.00;99.90;;;;;;4216159;28;20215;-76
2022/07/01 02:26:02;;;;;;;9.73;7.87;;;23.00;99.90;;;;;;4215292;28;20762;-76
2022/07/01 02:28:05;;;;;;;11.23;8.80;;;23.00;99.90;;;;;;4217183;28;20215;-76
2022/07/01 02:30:07;;;;;;;11.07;8.60;;;23.00;99.90;;;;;;4216245;28;20673;-76
2022/07/01 02:32:09;;;;;;;9.90;8.27;;;23.00;99.90;;;;;;4217179;28;20215;-76
2022/07/01 02:34:11;;;;;;;10.10;8.60;;;23.00;99.90;;;;;;4215271;28;20299;-76
2022/07/01 02:36:13;;;;;;;10.20;8.50;;;22.90;99.90;;;;;;4214771;28;20205;-76
2022/07/01 02:38:15;;;;;;;11.90;8.50;;;22.90;99.90;;;;;;4213587;28;20302;-76
2022/07/01 02:40:17;;;;;;;10.70;8.47;;;22.90;99.90;;;;;;4219286;28;20298;-77
2022/07/01 02:43:08;;;;;;;10.93;8.13;;;22.90;99.90;;;;;;4218104;28;20278;-76
2022/07/01 02:46:01;;;;;;;11.50;8.67;;;22.90;99.90;;;;;;4214866;28;20224;-76
2022/07/01 02:48:54;;;;;;;12.80;9.27;;;22.80;99.90;;;;;;4214745;28;21000;-76
2022/07/01 02:51:46;;;;;;;11.37;8.60;;;22.80;99.90;;;;;;4218910;28;20266;-76
2022/07/01 02:54:38;;;;;;;12.07;9.20;;;22.80;99.90;;;;;;4216951;28;20228;-76
2022/07/01 02:57:31;;;;;;;13.70;9.83;;;22.70;99.90;;;;;;4217098;28;20297;-76
2022/07/01 03:00:23;;;;;;;14.60;9.83;;;22.70;99.90;;;;;;4221133;28;20672;-77
2022/07/01 03:55:04;;;;;;;14.20;9.60;;;21.60;99.90;;;;;;4232784;27;20184;-77
2022/07/01 03:57:10;;;;;;;16.70;9.93;;;21.60;99.90;;;;;;4227316;27;20204;-76
2022/07/01 03:59:12;;;;;;;18.67;10.93;;;21.50;99.90;;;;;;4246934;27;20284;-76
2022/07/01 04:01:14;;;;;;;14.50;10.17;;;21.50;99.90;;;;;;4236136;27;20201;-78
2022/07/01 04:03:16;;;;;;;16.00;10.20;;;21.50;99.90;;;;;;4237859;27;20306;-77
2022/07/01 04:05:18;;;;;;;12.13;8.87;;;21.50;99.90;;;;;;4242680;27;20243;-77
2022/07/01 04:07:20;;;;;;;14.03;10.17;;;21.50;99.90;;;;;;4245522;27;20677;-76
2022/07/01 04:09:22;;;;;;;12.97;9.90;;;21.50;99.90;;;;;;4238651;27;20654;-76
2022/07/01 04:11:26;;;;;;;16.43;10.67;;;21.50;99.90;;;;;;4239003;27;20723;-77
2022/07/01 04:13:28;;;;;;;14.30;9.13;;;21.50;99.90;;;;;;4241662;27;20311;-77
2022/07/01 04:15:30;;;;;;;13.07;9.90;;;21.50;99.90;;;;;;4233864;27;20200;-78
2022/07/01 04:17:32;;;;;;;12.97;9.90;;;21.50;99.90;;;;;;4224822;28;20242;-77
2022/07/01 04:19:35;;;;;;;15.50;10.37;;;21.50;99.90;;;;;;4242087;27;20201;-76
2022/07/01 04:23:59;;;;;;;14.67;10.30;;;21.50;99.90;;;;;;4233247;27;20205;-76
2022/07/01 04:26:01;;;;;;;15.03;10.17;;;21.50;99.90;;;;;;4245806;27;20583;-76
2022/07/01 04:28:08;;;;;;;14.57;10.67;;;21.50;99.90;;;;;;4245112;27;20207;-76
2022/07/01 04:30:11;;;;;;;20.30;10.03;;;21.50;99.90;;;;;;4239261;27;20238;-76
2022/07/01 04:32:13;;;;;;;13.93;10.00;;;21.50;99.90;;;;;;4224462;27;20662;-76
2022/07/01 04:34:24;;;;;;;15.73;10.73;;;21.40;99.90;;;;;;4236804;22;20717;-79
2022/07/01 04:36:36;;;;;;;15.63;10.27;;;21.30;99.90;;;;;;4194325;28;20364;-79
2022/07/01 04:38:43;;;;;;;14.97;10.57;;;21.40;99.90;;;;;;4211626;28;20291;-80
2022/07/01 04:43:04;;;;;;;14.40;10.60;;;21.40;99.90;;;;;;4192072;28;20694;-79
2022/07/01 04:45:10;;;;;;;14.10;11.00;;;21.30;99.90;;;;;;4212191;28;20240;-79
2022/07/01 04:47:22;;;;;;;16.33;11.90;;;21.30;99.90;;;;;;4215214;28;20284;-79
2022/07/01 04:49:28;;;;;;;14.90;10.60;;;21.20;99.90;;;;;;4195729;28;20214;-80
2022/07/01 04:51:30;;;;;;;20.10;11.20;;;21.20;99.90;;;;;;4194658;28;20202;-79
2022/07/01 04:53:33;;;;;;;14.73;10.67;;;21.20;99.90;;;;;;4191817;28;20259;-79
2022/07/01 04:55:35;;;;;;;16.40;11.50;;;21.10;99.90;;;;;;4208475;28;20269;-81
2022/07/01 04:57:37;;;;;;;15.83;11.90;;;21.10;99.90;;;;;;4206937;28;20223;-81
2022/07/01 04:59:39;;;;;;;15.03;11.40;;;21.00;99.90;;;;;;4196925;28;20212;-80
2022/07/01 05:01:44;;;;;;;15.43;11.67;;;21.00;99.90;;;;;;4193826;28;20287;-81
2022/07/01 05:03:46;;;;;;;16.33;11.63;;;21.00;99.90;;;;;;4190106;28;20233;-79
2022/07/01 05:05:48;;;;;;;12.93;11.40;;;21.00;99.90;;;;;;4194970;28;20217;-80
2022/07/01 05:07:50;;;;;;;15.37;12.00;;;21.00;99.90;;;;;;4193980;28;20289;-79
2022/07/01 05:09:52;;;;;;;16.53;12.57;;;20.90;99.90;;;;;;4214663;28;20205;-80
2022/07/01 05:11:54;;;;;;;16.77;13.27;;;20.90;99.90;;;;;;4216553;28;20254;-80
2022/07/01 05:13:56;;;;;;;20.20;15.10;;;20.80;99.90;;;;;;4196935;28;20238;-81
2022/07/01 05:15:58;;;;;;;20.73;14.57;;;20.60;99.90;;;;;;4216471;28;20595;-82
2022/07/01 05:22:41;;;;;;;27.30;18.30;;;20.20;99.90;;;;;;4194274;28;20299;-78
2022/07/01 05:24:43;;;;;;;35.57;22.13;;;19.70;99.90;;;;;;4202360;28;20275;-79
2022/07/01 05:26:44;;;;;;;34.77;23.50;;;19.20;99.90;;;;;;4191166;28;20230;-78
2022/07/01 05:28:47;;;;;;;38.10;24.67;;;18.90;99.90;;;;;;4193513;28;20204;-77
2022/07/01 05:30:49;;;;;;;41.70;25.97;;;18.80;99.90;;;;;;4215140;28;20571;-78
2022/07/01 05:32:51;;;;;;;43.53;27.33;;;18.60;99.90;;;;;;4192117;28;20207;-79
2022/07/01 05:34:54;;;;;;;45.33;26.93;;;18.30;99.90;;;;;;4214822;28;20194;-79
2022/07/01 05:36:57;;;;;;;46.07;26.97;;;18.30;99.90;;;;;;4198937;28;20218;-79
2022/07/01 05:38:59;;;;;;;53.03;30.17;;;18.20;99.90;;;;;;4202851;28;20236;-79
2022/07/01 05:41:01;;;;;;;56.37;31.00;;;18.20;99.90;;;;;;4202337;28;20198;-79
2022/07/01 05:43:03;;;;;;;54.73;29.70;;;18.10;99.90;;;;;;4203914;28;20222;-77
2022/07/01 05:45:06;;;;;;;60.53;31.33;;;18.10;99.90;;;;;;4196223;28;20210;-78
2022/07/01 05:47:09;;;;;;;62.27;31.47;;;18.10;99.90;;;;;;4208048;28;20505;-77
2022/07/01 05:49:11;;;;;;;63.80;32.67;;;18.00;99.90;;;;;;4209815;28;20774;-77
2022/07/01 05:51:14;;;;;;;60.73;32.10;;;17.90;99.90;;;;;;4211888;28;20240;-77
2022/07/01 05:53:16;;;;;;;67.13;32.20;;;17.90;99.90;;;;;;4190520;28;20675;-76
2022/07/01 05:55:18;;;;;;;60.90;30.70;;;17.80;99.90;;;;;;4197289;28;20496;-77
2022/07/01 05:57:20;;;;;;;61.03;29.73;;;17.80;99.90;;;;;;4202109;28;20240;-76
2022/07/01 05:59:22;;;;;;;58.97;30.43;;;17.70;99.90;;;;;;4204344;28;20313;-75
2022/07/01 06:01:24;;;;;;;58.80;30.17;;;17.70;99.90;;;;;;4204562;28;20205;-77
2022/07/01 06:03:26;;;;;;;67.40;32.33;;;17.70;99.90;;;;;;4192390;28;20256;-77
2022/07/01 06:05:29;;;;;;;68.77;31.67;;;17.70;99.90;;;;;;4210421;28;20990;-76
2022/07/01 06:07:33;;;;;;;64.93;32.43;;;17.70;99.90;;;;;;4194173;28;20205;-76
2022/07/01 06:09:34;;;;;;;63.30;31.67;;;17.80;99.90;;;;;;4190656;28;20210;-77
2022/07/01 06:11:36;;;;;;;72.63;34.10;;;17.60;99.90;;;;;;4209080;28;20213;-77
2022/07/01 06:13:38;;;;;;;58.67;30.13;;;17.60;99.90;;;;;;4209957;28;20221;-77
2022/07/01 06:15:40;;;;;;;74.00;35.37;;;17.60;99.90;;;;;;4210710;28;20744;-76
2022/07/01 06:17:43;;;;;;;67.80;33.43;;;17.60;99.90;;;;;;4194014;28;20247;-77
2022/07/01 06:19:45;;;;;;;60.60;30.33;;;17.60;99.90;;;;;;4192556;28;20364;-77
2022/07/01 06:21:47;;;;;;;69.37;32.67;;;17.60;99.90;;;;;;4207502;28;20271;-77
2022/07/01 06:23:50;;;;;;;62.67;31.47;;;17.60;99.90;;;;;;4208491;28;20608;-77
2022/07/01 06:25:52;;;;;;;67.17;33.50;;;17.60;99.90;;;;;;4194664;28;20229;-78
2022/07/01 06:27:54;;;;;;;62.27;32.67;;;17.60;99.90;;;;;;4210709;28;20755;-76
2022/07/01 06:29:56;;;;;;;59.73;31.07;;;17.50;99.90;;;;;;4193585;28;20606;-78
2022/07/01 06:31:59;;;;;;;63.37;32.30;;;17.50;99.90;;;;;;4191886;28;20225;-77
2022/07/01 06:34:00;;;;;;;63.50;31.40;;;17.60;99.90;;;;;;4207200;28;20261;-77
2022/07/01 06:36:02;;;;;;;55.63;30.80;;;17.50;99.90;;;;;;4205264;28;20292;-76
2022/07/01 06:38:04;;;;;;;59.60;31.37;;;17.40;99.90;;;;;;4207005;28;20283;-77
2022/07/01 06:40:09;;;;;;;55.80;28.87;;;17.50;99.90;;;;;;4207299;28;20749;-77
2022/07/01 06:42:10;;;;;;;51.50;27.73;;;17.40;99.90;;;;;;4186916;28;20221;-77
2022/07/01 06:44:13;;;;;;;54.10;28.27;;;17.40;99.90;;;;;;4209244;28;20781;-77
2022/07/01 06:46:15;;;;;;;50.60;27.30;;;17.30;99.90;;;;;;4211450;28;20720;-77
2022/07/01 06:48:17;;;;;;;48.77;27.30;;;17.30;99.90;;;;;;4193344;28;20699;-77
2022/07/01 06:50:18;;;;;;;46.37;26.70;;;17.30;99.90;;;;;;4196187;28;20247;-77
2022/07/01 06:52:20;;;;;;;46.43;25.00;;;17.30;99.90;;;;;;4216823;28;20706;-77
2022/07/01 06:54:22;;;;;;;42.23;23.73;;;17.20;99.90;;;;;;4190101;28;20754;-79
2022/07/01 06:56:26;;;;;;;41.97;23.60;;;17.20;99.90;;;;;;4208647;28;20629;-77
2022/07/01 06:58:28;;;;;;;39.43;23.33;;;17.10;99.90;;;;;;4210112;28;20718;-77
2022/07/01 07:00:30;;;;;;;35.53;20.57;;;17.20;99.90;;;;;;4209236;28;20225;-78
2022/07/01 07:02:32;;;;;;;35.47;19.33;;;17.10;99.90;;;;;;4190107;28;20255;-77
2022/07/01 07:04:34;;;;;;;29.30;17.77;;;17.20;99.90;;;;;;4208523;28;20258;-77
2022/07/01 07:06:36;;;;;;;29.70;18.40;;;17.10;99.90;;;;;;4193466;28;20316;-77
2022/07/01 07:08:38;;;;;;;33.70;19.23;;;17.10;99.90;;;;;;4210163;28;20601;-77
2022/07/01 07:10:40;;;;;;;33.90;18.67;;;17.10;99.90;;;;;;4209083;28;20218;-77
2022/07/01 07:12:43;;;;;;;27.87;16.73;;;17.00;99.90;;;;;;4208072;28;20319;-77
2022/07/01 07:14:45;;;;;;;27.43;17.00;;;17.00;99.90;;;;;;4212166;28;20236;-76
2022/07/01 07:16:47;;;;;;;22.73;15.43;;;17.10;99.90;;;;;;4210972;28;20206;-79
2022/07/01 07:18:49;;;;;;;26.23;16.10;;;17.00;99.90;;;;;;4210629;28;20661;-78
2022/07/01 07:20:51;;;;;;;24.77;15.67;;;17.00;99.90;;;;;;4193238;28;20216;-77
2022/07/01 07:22:53;;;;;;;28.13;16.67;;;17.00;99.90;;;;;;4208147;28;20262;-77
2022/07/01 07:24:55;;;;;;;25.30;15.03;;;17.00;99.90;;;;;;4193128;28;20205;-79
2022/07/01 07:26:57;;;;;;;25.00;14.63;;;17.00;99.90;;;;;;4192407;28;20225;-76
2022/07/01 07:29:00;;;;;;;22.97;14.43;;;16.90;99.90;;;;;;4209294;28;20287;-77
2022/07/01 07:31:02;;;;;;;24.60;13.73;;;16.90;99.90;;;;;;4209868;28;20267;-77
2022/07/01 07:33:04;;;;;;;22.47;13.63;;;16.90;99.90;;;;;;4208305;28;21077;-77
2022/07/01 07:35:07;;;;;;;26.80;14.77;;;16.80;99.90;;;;;;4208841;28;20255;-77
2022/07/01 07:37:09;;;;;;;28.17;14.73;;;16.70;99.90;;;;;;4189535;28;21314;-77
2022/07/01 07:39:11;;;;;;;25.57;14.77;;;16.70;99.90;;;;;;4208571;28;20212;-77
2022/07/01 07:41:13;;;;;;;29.20;16.33;;;16.70;99.90;;;;;;4210941;28;20232;-77
2022/07/01 07:43:15;;;;;;;27.23;15.20;;;16.60;99.90;;;;;;4190292;28;20659;-77
2022/07/01 07:45:19;;;;;;;26.60;15.27;;;16.50;99.90;;;;;;4210362;28;20277;-77
2022/07/01 07:47:21;;;;;;;25.87;15.43;;;16.40;99.90;;;;;;4208679;28;20228;-76
2022/07/01 07:49:23;;;;;;;26.63;15.03;;;16.40;99.90;;;;;;4209648;28;20249;-77
2022/07/01 07:51:24;;;;;;;29.40;15.33;;;16.40;99.90;;;;;;4195407;28;20212;-77
2022/07/01 07:53:26;;;;;;;31.33;15.73;;;16.30;99.90;;;;;;4209890;28;20318;-78
2022/07/01 07:55:28;;;;;;;30.20;15.60;;;16.30;99.90;;;;;;4209516;28;20213;-78
2022/07/01 07:57:30;;;;;;;29.13;15.77;;;16.30;99.90;;;;;;4204888;28;20235;-80
2022/07/01 07:59:32;;;;;;;31.17;16.10;;;16.20;99.90;;;;;;4208169;28;20235;-78
2022/07/01 08:01:36;;;;;;;27.03;14.80;;;16.20;99.90;;;;;;4208172;28;20242;-78
2022/07/01 08:03:38;;;;;;;25.00;14.50;;;16.20;99.90;;;;;;4209926;28;20672;-77
2022/07/01 08:05:40;;;;;;;23.03;13.77;;;16.20;99.90;;;;;;4211002;28;20204;-77
2022/07/01 08:07:43;;;;;;;25.60;14.67;;;16.20;99.90;;;;;;4209459;28;20269;-77
2022/07/01 08:09:47;;;;;;;23.77;14.07;;;16.20;99.90;;;;;;4186379;28;20620;-77
2022/07/01 08:11:49;;;;;;;24.57;13.73;;;16.10;99.90;;;;;;4208925;28;20208;-78
2022/07/01 08:13:51;;;;;;;23.97;13.67;;;16.10;99.90;;;;;;4208959;28;20341;-77
2022/07/01 08:15:54;;;;;;;23.77;13.57;;;16.10;99.90;;;;;;4211552;28;20319;-76
2022/07/01 08:17:57;;;;;;;22.90;14.03;;;16.10;99.90;;;;;;4191848;28;20757;-77
2022/07/01 08:19:59;;;;;;;22.17;12.83;;;16.10;99.90;;;;;;4210818;28;20663;-76
2022/07/01 08:22:01;;;;;;;26.47;14.47;;;16.00;99.90;;;;;;4210339;28;20232;-77
2022/07/01 08:24:03;;;;;;;30.20;15.20;;;16.00;99.90;;;;;;4190639;28;20257;-77
2022/07/01 08:26:05;;;;;;;28.50;15.33;;;15.90;99.90;;;;;;4205221;28;20211;-78
2022/07/01 08:28:07;;;;;;;31.47;16.33;;;16.00;99.90;;;;;;4207701;28;20342;-76
2022/07/01 08:30:10;;;;;;;28.87;15.70;;;15.90;99.90;;;;;;4209461;28;20235;-78
2022/07/01 08:32:12;;;;;;;37.33;17.87;;;15.90;99.90;;;;;;4190569;28;20221;-76
2022/07/01 08:34:16;;;;;;;30.47;16.23;;;15.90;99.90;;;;;;4210180;28;20976;-76
2022/07/01 08:36:18;;;;;;;35.97;17.43;;;15.90;99.90;;;;;;4209934;28;20261;-76
2022/07/01 08:38:20;;;;;;;40.10;18.67;;;15.90;99.90;;;;;;4208731;28;20294;-77
2022/07/01 08:40:25;;;;;;;37.60;17.33;;;15.90;99.90;;;;;;4210068;28;20313;-77
2022/07/01 08:42:28;;;;;;;35.90;17.33;;;15.90;99.90;;;;;;4189018;28;20212;-76
2022/07/01 08:44:29;;;;;;;42.43;19.23;;;15.90;99.90;;;;;;4207684;28;20249;-76
2022/07/01 08:46:31;;;;;;;37.90;18.07;;;15.90;99.90;;;;;;4187944;28;20608;-76
2022/07/01 08:48:34;;;;;;;37.73;18.93;;;15.80;99.90;;;;;;4204368;28;20211;-76
2022/07/01 08:50:39;;;;;;;50.37;20.03;;;15.90;99.90;;;;;;4207729;28;20210;-76
2022/07/01 08:52:41;;;;;;;39.10;19.10;;;15.80;99.90;;;;;;4206042;28;20231;-75
2022/07/01 08:54:43;;;;;;;42.33;18.97;;;15.80;99.90;;;;;;4207148;28;20210;-76
2022/07/01 08:56:45;;;;;;;49.33;21.53;;;15.90;99.90;;;;;;4208204;28;20679;-76
2022/07/01 08:58:49;;;;;;;45.67;21.00;;;15.80;99.90;;;;;;4208199;28;20680;-76
2022/07/01 09:00:54;;;;;;;39.37;19.97;;;15.80;99.90;;;;;;4186362;28;20685;-77
2022/07/01 09:02:58;;;;;;;42.97;19.67;;;15.80;99.90;;;;;;4189036;28;20266;-76
2022/07/01 09:05:06;;;;;;;45.27;21.23;;;15.90;99.90;;;;;;4209175;28;20249;-75
2022/07/01 09:07:10;;;;;;;40.83;19.47;;;15.90;99.90;;;;;;4206810;28;20305;-76
2022/07/01 09:09:14;;;;;;;41.10;19.53;;;15.90;99.90;;;;;;4205509;28;20206;-76
2022/07/01 09:11:17;;;;;;;43.50;20.47;;;15.90;99.90;;;;;;4206087;28;20298;-76
2022/07/01 09:13:22;;;;;;;43.43;19.90;;;15.90;99.90;;;;;;4206449;28;20219;-77
2022/07/01 09:15:26;;;;;;;40.43;19.40;;;15.90;99.90;;;;;;4204529;28;20202;-76
2022/07/01 09:17:28;;;;;;;45.27;20.03;;;15.90;99.90;;;;;;4185979;28;20684;-77
2022/07/01 09:19:34;;;;;;;42.10;20.60;;;15.90;99.90;;;;;;4190069;28;20207;-77
2022/07/01 09:21:38;;;;;;;48.90;21.63;;;16.00;99.90;;;;;;4190269;28;20204;-76
2022/07/01 09:23:42;;;;;;;50.60;22.87;;;15.80;99.90;;;;;;4204381;28;20250;-76
2022/07/01 09:25:47;;;;;;;56.03;24.60;;;15.80;99.90;;;;;;4206728;28;20303;-74
2022/07/01 09:28:07;;;;;;;50.63;21.60;;;15.70;99.90;;;;;;4208239;28;20287;-75
2022/07/01 09:30:10;;;;;;;46.37;22.10;;;15.70;99.90;;;;;;4206384;28;20205;-76
2022/07/01 09:32:14;;;;;;;53.47;23.93;;;15.70;99.90;;;;;;4210461;28;20801;-76
2022/07/01 09:34:16;;;;;;;57.77;24.33;;;15.70;99.90;;;;;;4208369;28;20317;-75
2022/07/01 09:36:18;;;;;;;53.73;25.03;;;15.70;99.90;;;;;;4209797;28;20209;-75
2022/07/01 09:38:23;;;;;;;59.50;23.90;;;15.60;99.90;;;;;;4206683;28;20211;-75
2022/07/01 09:40:26;;;;;;;52.83;21.97;;;15.70;99.90;;;;;;4207027;28;20229;-75
2022/07/01 09:42:29;;;;;;;58.73;24.13;;;15.60;99.90;;;;;;4188288;28;20273;-75
2022/07/01 09:44:30;;;;;;;65.43;25.03;;;15.70;99.90;;;;;;4206981;28;20239;-75
2022/07/01 09:46:32;;;;;;;56.87;24.07;;;15.60;99.90;;;;;;4190373;28;20253;-76
2022/07/01 09:48:48;;;;;;;56.93;23.57;;;15.60;99.90;;;;;;4189877;28;20813;-75
2022/07/01 09:50:50;;;;;;;58.57;24.50;;;15.60;99.90;;;;;;4183710;28;20194;-75
2022/07/01 09:53:05;;;;;;;62.10;25.13;;;15.60;99.90;;;;;;4185436;28;20214;-75
2022/07/01 09:55:08;;;;;;;65.97;26.20;;;15.50;99.90;;;;;;4204804;28;20210;-75
2022/07/01 09:57:11;;;;;;;70.37;25.77;;;15.40;99.90;;;;;;4209658;28;20205;-75
2022/07/01 09:59:13;;;;;;;58.23;23.50;;;15.40;99.90;;;;;;4207203;28;20572;-75
2022/07/01 10:01:15;;;;;;;58.43;23.40;;;15.40;99.90;;;;;;4205438;28;20576;-75
2022/07/01 10:03:19;;;;;;;62.10;25.70;;;15.40;99.90;;;;;;4207998;28;20253;-75
2022/07/01 10:05:24;;;;;;;73.40;24.83;;;15.40;99.90;;;;;;4209788;28;20596;-76
2022/07/01 10:07:38;;;;;;;57.07;24.20;;;15.40;99.90;;;;;;4190216;28;20234;-76
2022/07/01 10:10:13;;;;;;;58.53;23.50;;;15.40;99.90;;;;;;4188352;28;20440;-75
2022/07/01 10:12:33;;;;;;;51.87;21.80;;;15.40;99.90;;;;;;4139561;28;20398;-76
2022/07/01 10:14:39;;;;;;;54.07;22.57;;;15.50;99.90;;;;;;4188072;28;20294;-77
2022/07/01 10:16:41;;;;;;;53.20;21.30;;;15.50;99.90;;;;;;4206444;28;20293;-75
2022/07/01 10:18:43;;;;;;;50.87;21.80;;;15.40;99.90;;;;;;4207930;28;20210;-75
2022/07/01 10:20:48;;;;;;;49.80;20.73;;;15.50;99.90;;;;;;4207414;28;20206;-75
2022/07/01 10:22:51;;;;;;;42.97;18.23;;;15.50;99.90;;;;;;4206513;28;20212;-76
2022/07/01 10:24:54;;;;;;;38.67;17.40;;;15.50;99.90;;;;;;4208536;28;20628;-76
2022/07/01 10:27:01;;;;;;;46.37;18.03;;;15.60;99.90;;;;;;4188696;28;20207;-76
2022/07/01 10:29:06;;;;;;;46.43;19.40;;;15.60;99.90;;;;;;4207612;28;20329;-76
2022/07/01 10:31:15;;;;;;;41.30;17.93;;;15.60;99.90;;;;;;4188826;28;20215;-75
2022/07/01 10:33:36;;;;;;;34.93;16.07;;;15.60;99.90;;;;;;4234831;22;20213;-81
2022/07/01 10:35:38;;;;;;;29.57;13.73;;;15.50;99.90;;;;;;4173575;28;20217;-81
2022/07/01 10:37:58;;;;;;;25.43;12.97;;;15.50;99.90;;;;;;4179484;28;20589;-81
2022/07/01 10:40:06;;;;;;;22.93;11.73;;;15.50;99.90;;;;;;4179392;28;20209;-81
2022/07/01 10:42:09;;;;;;;25.77;11.87;;;15.50;99.90;;;;;;4194910;28;20249;-81
2022/07/01 10:44:14;;;;;;;24.07;11.57;;;15.50;99.90;;;;;;4177085;28;20460;-81
2022/07/01 10:46:40;;;;;;;22.33;11.37;;;15.50;99.90;;;;;;4169601;28;20633;-81
2022/07/01 10:48:50;;;;;;;20.67;11.33;;;15.50;99.90;;;;;;4156280;28;20311;-81
2022/07/01 10:54:12;;;;;;;26.37;12.10;;;15.50;99.90;;;;;;4253583;22;20256;-81
2022/07/01 10:56:18;;;;;;;22.60;11.47;;;15.50;99.90;;;;;;4211386;28;20244;-81
2022/07/01 10:58:36;;;;;;;22.73;11.60;;;15.50;99.90;;;;;;4207919;28;20773;-81
2022/07/01 11:00:43;;;;;;;18.27;10.40;;;15.50;99.90;;;;;;4210069;28;20264;-81
2022/07/01 11:02:47;;;;;;;18.70;10.50;;;15.50;99.90;;;;;;4210272;28;20210;-81
2022/07/01 11:04:49;;;;;;;20.63;11.13;;;15.60;99.90;;;;;;4192213;28;20230;-81
2022/07/01 11:06:53;;;;;;;17.60;10.23;;;15.50;99.90;;;;;;4207068;28;20203;-81
2022/07/01 11:08:55;;;;;;;18.37;11.87;;;15.60;99.90;;;;;;4211461;28;20233;-81
2022/07/01 11:11:01;;;;;;;18.47;11.27;;;15.60;99.90;;;;;;4206613;28;20507;-81
2022/07/01 11:15:37;;;;;;;21.97;12.70;;;15.60;99.90;;;;;;4205837;28;20202;-82
2022/07/01 11:17:45;;;;;;;21.60;12.27;;;15.60;99.90;;;;;;4208998;28;20205;-81
2022/07/01 11:19:49;;;;;;;18.47;12.33;;;15.60;99.90;;;;;;4210368;28;20206;-81
2022/07/01 11:21:51;;;;;;;19.50;12.17;;;15.50;99.90;;;;;;4228644;28;20214;-82
2022/07/01 11:23:56;;;;;;;23.67;12.63;;;15.60;99.90;;;;;;4209969;28;20617;-81
2022/07/01 11:25:58;;;;;;;22.17;12.30;;;15.50;99.90;;;;;;4206486;28;20290;-81
2022/07/01 11:28:00;;;;;;;20.00;12.50;;;15.60;99.90;;;;;;4211125;28;20237;-81
2022/07/01 11:30:04;;;;;;;20.60;11.80;;;15.60;99.90;;;;;;4210337;28;20293;-81
2022/07/01 11:32:07;;;;;;;23.97;13.27;;;15.60;99.90;;;;;;4211546;28;20222;-81
2022/07/01 11:34:10;;;;;;;28.10;14.83;;;15.60;99.90;;;;;;4212175;28;20234;-81
2022/07/01 11:40:54;;;;;;;28.90;15.33;;;15.60;99.90;;;;;;4212757;28;20202;-81
2022/07/01 11:42:56;;;;;;;27.50;14.63;;;15.50;99.90;;;;;;4231303;28;20221;-81
2022/07/01 11:44:58;;;;;;;30.77;15.40;;;15.50;99.90;;;;;;4214611;28;20199;-81